PWSweather.com
Personal Weather Stations
Station Observations
KJ4AJP
Beautiful Downtown Gardner, Martin, TN 38237

Beautiful Downtown GardnerMartin, TN 38237

Lat: 36.358, Lon: -88.8994

Elevation: 384.3

Station Type: TP1080WC

http://weather.mambm.com/

Latest ConditionsUpdated 7:00:01 AM CDT Sunday, Oct 22, 2017
Currently Today's Max Today's Min Today's Average
Temperature 67.5°F19.7°C 69.1°F20.6°C 67.3°F19.6°C 68.3°F20.2°C
Dew Point 65.7°F18.7°C 66.5°F19.2°C 64.9°F18.3°C 66.0°F18.9°C
Winds 3.8 mph SE6.1 kmh SE 5.4 mph SSE8.7 kmh SSE - 3.0 mph 4.8 kmh
Wind Gusts 13.6 mph21.9 kmh 15.2 mph24.5 kmh - -
Humidity 94% 94% 91% 92%
Pressure 29.99 in1015.6 mb 30.05 in1017.6 mb 29.99 in1015.6 mb -
Precipitation - 0.02 in0.5 mm - -
Hour Temp Dew Point Humidity Winds Wind Gusts Pressure Precip Precip Rate Daily Precip Total
07:00 AM 67.5°F19.7°C 65.7°F18.7°C 94% 3.8 mph SE6.1 kmh SE 13.6 mph21.9 kmh 29.99 in1015.6 mb 0.02 in0.5 mm 0.01 in0.3 mm 0.02 in0.5 mm
06:45 AM 68.5°F20.3°C 66.2°F19.0°C 92% 5.4 mph SE8.7 kmh SE 15.2 mph24.5 kmh 30.00 in1015.9 mb 0.01 in0.3 mm 0.04 in1.0 mm 0.01 in0.3 mm
06:30 AM 68.5°F20.3°C 66.2°F19.0°C 92% 2.2 mph S3.5 kmh S 13.0 mph20.9 kmh 30.00 in1015.9 mb 0.00 in0.0 mm 0.00 in0.0 mm 0.00 in0.0 mm
06:15 AM 68.4°F20.2°C 66.0°F18.9°C 92% 4.5 mph SSE7.2 kmh SSE 9.2 mph14.8 kmh 30.01 in1016.3 mb 0.00 in0.0 mm 0.00 in0.0 mm 0.00 in0.0 mm
06:00 AM 68.4°F20.2°C 66.0°F18.9°C 92% 3.1 mph ESE5.0 kmh ESE 9.8 mph15.8 kmh 30.00 in1015.9 mb 0.00 in0.0 mm 0.00 in0.0 mm 0.00 in0.0 mm
05:45 AM 68.5°F20.3°C 66.2°F19.0°C 92% 4.5 mph SE7.2 kmh SE 9.8 mph15.8 kmh 30.00 in1015.9 mb 0.00 in0.0 mm 0.00 in0.0 mm 0.00 in0.0 mm
05:30 AM 68.7°F20.4°C 66.0°F18.9°C 91% 4.5 mph S7.2 kmh S 14.5 mph23.3 kmh 30.00 in1015.9 mb 0.00 in0.0 mm 0.00 in0.0 mm 0.00 in0.0 mm
05:15 AM 69.1°F20.6°C 66.4°F19.1°C 91% 4.5 mph S7.2 kmh S 9.8 mph15.8 kmh 30.00 in1015.9 mb 0.00 in0.0 mm 0.00 in0.0 mm 0.00 in0.0 mm
05:00 AM 69.1°F20.6°C 66.4°F19.1°C 91% 3.1 mph SE5.0 kmh SE 11.4 mph18.3 kmh 30.00 in1015.9 mb 0.00 in0.0 mm 0.00 in0.0 mm 0.00 in0.0 mm
04:45 AM 68.9°F20.5°C 66.5°F19.2°C 92% 4.5 mph SE7.2 kmh SE 13.0 mph20.9 kmh 30.00 in1015.9 mb 0.00 in0.0 mm 0.00 in0.0 mm 0.00 in0.0 mm
04:30 AM 68.9°F20.5°C 66.5°F19.2°C 92% 0.7 mph SSE1.1 kmh SSE 8.3 mph13.4 kmh 30.00 in1015.9 mb 0.00 in0.0 mm 0.00 in0.0 mm 0.00 in0.0 mm
04:15 AM 68.7°F20.4°C 66.3°F19.1°C 92% 4.5 mph S7.2 kmh S 11.4 mph18.3 kmh 30.00 in1015.9 mb 0.00 in0.0 mm 0.00 in0.0 mm 0.00 in0.0 mm
04:00 AM 68.7°F20.4°C 66.3°F19.1°C 92% 2.2 mph SE3.5 kmh SE 8.3 mph13.4 kmh 30.00 in1015.9 mb 0.00 in0.0 mm 0.00 in0.0 mm 0.00 in0.0 mm
03:45 AM 68.7°F20.4°C 66.3°F19.1°C 92% 2.2 mph E3.5 kmh E 7.6 mph12.2 kmh 29.99 in1015.6 mb 0.00 in0.0 mm 0.00 in0.0 mm 0.00 in0.0 mm
03:30 AM 68.7°F20.4°C 66.3°F19.1°C 92% 0.7 mph SE1.1 kmh SE 8.3 mph13.4 kmh 29.99 in1015.6 mb 0.00 in0.0 mm 0.00 in0.0 mm 0.00 in0.0 mm
03:15 AM 68.7°F20.4°C 66.3°F19.1°C 92% 1.6 mph SE2.6 kmh SE 6.9 mph11.1 kmh 30.00 in1015.9 mb 0.00 in0.0 mm 0.00 in0.0 mm 0.00 in0.0 mm
03:00 AM 68.7°F20.4°C 66.3°F19.1°C 92% 2.2 mph SSE3.5 kmh SSE 11.4 mph18.3 kmh 30.00 in1015.9 mb 0.00 in0.0 mm 0.00 in0.0 mm 0.00 in0.0 mm
02:45 AM 68.5°F20.3°C 66.2°F19.0°C 92% 0.7 mph SSE1.1 kmh SSE 9.8 mph15.8 kmh 30.01 in1016.3 mb 0.00 in0.0 mm 0.00 in0.0 mm 0.00 in0.0 mm
02:30 AM 68.5°F20.3°C 66.2°F19.0°C 92% 5.4 mph SSE8.7 kmh SSE 10.7 mph17.2 kmh 30.02 in1016.6 mb 0.00 in0.0 mm 0.00 in0.0 mm 0.00 in0.0 mm
02:15 AM 68.4°F20.2°C 66.0°F18.9°C 92% 3.8 mph SE6.1 kmh SE 8.3 mph13.4 kmh 30.02 in1016.6 mb 0.00 in0.0 mm 0.00 in0.0 mm 0.00 in0.0 mm
02:00 AM 68.2°F20.1°C 66.1°F18.9°C 93% 2.2 mph SE3.5 kmh SE 9.8 mph15.8 kmh 30.02 in1016.6 mb 0.00 in0.0 mm 0.00 in0.0 mm 0.00 in0.0 mm
01:45 AM 68.0°F20.0°C 65.9°F18.8°C 93% 3.8 mph SE6.1 kmh SE 8.3 mph13.4 kmh 30.03 in1016.9 mb 0.00 in0.0 mm 0.00 in0.0 mm 0.00 in0.0 mm
01:30 AM 67.6°F19.8°C 65.6°F18.7°C 93% 3.8 mph SE6.1 kmh SE 8.3 mph13.4 kmh 30.04 in1017.3 mb 0.00 in0.0 mm 0.00 in0.0 mm 0.00 in0.0 mm
01:15 AM 67.3°F19.6°C 65.2°F18.4°C 93% 3.1 mph SE5.0 kmh SE 10.7 mph17.2 kmh 30.03 in1016.9 mb 0.00 in0.0 mm 0.00 in0.0 mm 0.00 in0.0 mm
01:00 AM 67.3°F19.6°C 65.2°F18.4°C 93% 1.6 mph SSE2.6 kmh SSE 9.8 mph15.8 kmh 30.04 in1017.3 mb 0.00 in0.0 mm 0.00 in0.0 mm 0.00 in0.0 mm
12:45 AM 67.3°F19.6°C 64.9°F18.3°C 92% 1.6 mph SE2.6 kmh SE 9.2 mph14.8 kmh 30.04 in1017.3 mb 0.00 in0.0 mm 0.00 in0.0 mm 0.00 in0.0 mm
12:30 AM 67.6°F19.8°C 64.9°F18.3°C 91% 3.1 mph ESE5.0 kmh ESE 7.6 mph12.2 kmh 30.05 in1017.6 mb 0.00 in0.0 mm 0.00 in0.0 mm 0.00 in0.0 mm
12:15 AM 68.0°F20.0°C 65.3°F18.5°C 91% 3.8 mph SSE6.1 kmh SSE 10.7 mph17.2 kmh 30.04 in1017.3 mb 0.00 in0.0 mm 0.00 in0.0 mm 0.00 in0.0 mm
12:00 AM 68.2°F20.1°C 65.5°F18.6°C 91% 0.7 mph SE1.1 kmh SE 11.4 mph18.3 kmh 30.04 in1017.3 mb 0.00 in0.0 mm 0.00 in0.0 mm 0.00 in0.0 mm